sensor_id;sensor_type;location;lat;lon;timestamp;pressure;altitude;pressure_sealevel;temperature;humidity
36788;BME280;22738;45.560;9.434;2022-10-16T00:00:26;100279.41;;;17.30;100.00
36788;BME280;22738;45.560;9.434;2022-10-16T00:07:07;100282.03;;;17.30;100.00
36788;BME280;22738;45.560;9.434;2022-10-16T00:13:50;100286.59;;;17.28;100.00
36788;BME280;22738;45.560;9.434;2022-10-16T00:20:35;100278.28;;;17.23;100.00
36788;BME280;22738;45.560;9.434;2022-10-16T00:27:17;100281.88;;;17.22;100.00
36788;BME280;22738;45.560;9.434;2022-10-16T00:33:58;100279.50;;;17.19;100.00
36788;BME280;22738;45.560;9.434;2022-10-16T00:40:39;100283.59;;;17.11;100.00
36788;BME280;22738;45.560;9.434;2022-10-16T00:47:44;100283.44;;;17.13;100.00
36788;BME280;22738;45.560;9.434;2022-10-16T00:54:28;100287.16;;;17.10;100.00
36788;BME280;22738;45.560;9.434;2022-10-16T01:01:12;100291.97;;;17.05;100.00
36788;BME280;22738;45.560;9.434;2022-10-16T01:15:03;100284.09;;;17.05;100.00
36788;BME280;22738;45.560;9.434;2022-10-16T01:21:48;100277.44;;;17.01;100.00
36788;BME280;22738;45.560;9.434;2022-10-16T01:28:40;100284.88;;;16.96;100.00
36788;BME280;22738;45.560;9.434;2022-10-16T01:35:27;100278.66;;;16.97;100.00
36788;BME280;22738;45.560;9.434;2022-10-16T01:42:19;100279.63;;;16.96;100.00
36788;BME280;22738;45.560;9.434;2022-10-16T01:49:03;100277.00;;;16.96;100.00
36788;BME280;22738;45.560;9.434;2022-10-16T01:55:46;100271.47;;;16.90;100.00
36788;BME280;22738;45.560;9.434;2022-10-16T02:02:30;100278.94;;;16.94;100.00
36788;BME280;22738;45.560;9.434;2022-10-16T02:09:11;100281.03;;;17.00;100.00
36788;BME280;22738;45.560;9.434;2022-10-16T02:15:53;100285.28;;;17.01;100.00
36788;BME280;22738;45.560;9.434;2022-10-16T02:22:40;100290.16;;;17.06;100.00
36788;BME280;22738;45.560;9.434;2022-10-16T02:29:24;100299.13;;;17.03;100.00
36788;BME280;22738;45.560;9.434;2022-10-16T02:36:07;100294.13;;;17.00;100.00
36788;BME280;22738;45.560;9.434;2022-10-16T02:42:51;100298.38;;;17.01;100.00
36788;BME280;22738;45.560;9.434;2022-10-16T02:49:32;100305.06;;;17.05;100.00
36788;BME280;22738;45.560;9.434;2022-10-16T02:56:13;100309.59;;;17.03;100.00
36788;BME280;22738;45.560;9.434;2022-10-16T03:02:54;100306.25;;;17.01;100.00
36788;BME280;22738;45.560;9.434;2022-10-16T03:09:35;100306.00;;;17.04;100.00
36788;BME280;22738;45.560;9.434;2022-10-16T03:16:17;100315.53;;;17.05;100.00
36788;BME280;22738;45.560;9.434;2022-10-16T03:22:58;100323.63;;;17.02;100.00
36788;BME280;22738;45.560;9.434;2022-10-16T03:29:39;100320.56;;;16.97;100.00
36788;BME280;22738;45.560;9.434;2022-10-16T03:36:20;100332.06;;;16.85;100.00
36788;BME280;22738;45.560;9.434;2022-10-16T03:43:01;100318.75;;;16.77;100.00
36788;BME280;22738;45.560;9.434;2022-10-16T03:49:42;100332.22;;;16.73;100.00
36788;BME280;22738;45.560;9.434;2022-10-16T03:56:23;100328.31;;;16.67;100.00
36788;BME280;22738;45.560;9.434;2022-10-16T04:03:04;100338.28;;;16.73;100.00
36788;BME280;22738;45.560;9.434;2022-10-16T04:09:45;100337.78;;;16.79;100.00
36788;BME280;22738;45.560;9.434;2022-10-16T04:16:27;100344.41;;;16.83;100.00
36788;BME280;22738;45.560;9.434;2022-10-16T04:23:08;100358.34;;;16.84;100.00
36788;BME280;22738;45.560;9.434;2022-10-16T04:29:50;100356.06;;;16.90;100.00
36788;BME280;22738;45.560;9.434;2022-10-16T04:36:32;100367.63;;;16.88;100.00
36788;BME280;22738;45.560;9.434;2022-10-16T04:43:13;100366.28;;;16.93;100.00
36788;BME280;22738;45.560;9.434;2022-10-16T04:49:56;100367.13;;;16.94;100.00
36788;BME280;22738;45.560;9.434;2022-10-16T04:56:38;100373.69;;;16.88;100.00
36788;BME280;22738;45.560;9.434;2022-10-16T05:03:27;100378.34;;;16.85;100.00
36788;BME280;22738;45.560;9.434;2022-10-16T05:10:08;100373.00;;;16.86;100.00
36788;BME280;22738;45.560;9.434;2022-10-16T05:16:49;100381.44;;;16.90;100.00
36788;BME280;22738;45.560;9.434;2022-10-16T05:23:30;100374.41;;;16.90;100.00
36788;BME280;22738;45.560;9.434;2022-10-16T05:30:12;100372.38;;;16.94;100.00
36788;BME280;22738;45.560;9.434;2022-10-16T05:36:53;100376.53;;;16.96;100.00
36788;BME280;22738;45.560;9.434;2022-10-16T05:43:34;100383.56;;;16.96;100.00
36788;BME280;22738;45.560;9.434;2022-10-16T05:50:15;100390.06;;;17.01;100.00
36788;BME280;22738;45.560;9.434;2022-10-16T05:56:56;100403.66;;;16.95;100.00
36788;BME280;22738;45.560;9.434;2022-10-16T06:03:37;100419.50;;;16.94;100.00
36788;BME280;22738;45.560;9.434;2022-10-16T06:10:18;100426.16;;;16.98;100.00
36788;BME280;22738;45.560;9.434;2022-10-16T06:16:59;100432.44;;;17.06;100.00
36788;BME280;22738;45.560;9.434;2022-10-16T06:23:40;100440.53;;;17.15;100.00
36788;BME280;22738;45.560;9.434;2022-10-16T06:30:21;100453.13;;;17.21;100.00
36788;BME280;22738;45.560;9.434;2022-10-16T06:37:02;100468.56;;;17.35;100.00
36788;BME280;22738;45.560;9.434;2022-10-16T06:43:44;100475.44;;;17.36;100.00
36788;BME280;22738;45.560;9.434;2022-10-16T06:50:28;100475.38;;;17.47;100.00
36788;BME280;22738;45.560;9.434;2022-10-16T06:57:09;100475.03;;;17.62;100.00
36788;BME280;22738;45.560;9.434;2022-10-16T07:03:50;100498.56;;;17.73;100.00
36788;BME280;22738;45.560;9.434;2022-10-16T07:10:33;100497.88;;;17.92;100.00
36788;BME280;22738;45.560;9.434;2022-10-16T07:17:15;100515.41;;;18.12;100.00
36788;BME280;22738;45.560;9.434;2022-10-16T07:23:59;100522.41;;;18.32;100.00
36788;BME280;22738;45.560;9.434;2022-10-16T07:30:40;100529.84;;;18.48;100.00
36788;BME280;22738;45.560;9.434;2022-10-16T07:37:21;100533.81;;;19.12;100.00
36788;BME280;22738;45.560;9.434;2022-10-16T07:44:03;100530.44;;;19.50;100.00
36788;BME280;22738;45.560;9.434;2022-10-16T07:50:45;100547.97;;;21.09;100.00
36788;BME280;22738;45.560;9.434;2022-10-16T07:57:27;100548.44;;;20.95;100.00
36788;BME280;22738;45.560;9.434;2022-10-16T08:04:09;100557.53;;;20.18;100.00
36788;BME280;22738;45.560;9.434;2022-10-16T08:10:50;100563.53;;;20.01;100.00
36788;BME280;22738;45.560;9.434;2022-10-16T08:17:31;100564.59;;;20.46;100.00
36788;BME280;22738;45.560;9.434;2022-10-16T08:24:13;100564.13;;;20.60;100.00
36788;BME280;22738;45.560;9.434;2022-10-16T08:30:54;100561.88;;;20.92;100.00
36788;BME280;22738;45.560;9.434;2022-10-16T08:37:37;100567.09;;;21.56;100.00
36788;BME280;22738;45.560;9.434;2022-10-16T08:44:44;100574.41;;;22.33;100.00
36788;BME280;22738;45.560;9.434;2022-10-16T08:51:36;100571.63;;;22.42;100.00
36788;BME280;22738;45.560;9.434;2022-10-16T08:58:23;100575.81;;;22.70;100.00
36788;BME280;22738;45.560;9.434;2022-10-16T09:12:41;100572.25;;;22.88;100.00
36788;BME280;22738;45.560;9.434;2022-10-16T09:19:48;100586.75;;;22.84;100.00
36788;BME280;22738;45.560;9.434;2022-10-16T09:26:32;100591.38;;;22.56;100.00
36788;BME280;22738;45.560;9.434;2022-10-16T09:33:13;100599.97;;;23.59;100.00
36788;BME280;22738;45.560;9.434;2022-10-16T09:39:55;100601.34;;;24.36;100.00
36788;BME280;22738;45.560;9.434;2022-10-16T09:46:36;100595.00;;;23.56;100.00
36788;BME280;22738;45.560;9.434;2022-10-16T09:53:20;100593.44;;;23.37;100.00
36788;BME280;22738;45.560;9.434;2022-10-16T10:00:08;100596.97;;;23.46;100.00
36788;BME280;22738;45.560;9.434;2022-10-16T10:06:52;100604.25;;;23.60;100.00
36788;BME280;22738;45.560;9.434;2022-10-16T10:13:35;100587.34;;;23.45;100.00
36788;BME280;22738;45.560;9.434;2022-10-16T10:20:42;100588.72;;;23.65;100.00
36788;BME280;22738;45.560;9.434;2022-10-16T10:27:35;100596.97;;;23.54;100.00
36788;BME280;22738;45.560;9.434;2022-10-16T10:49:16;100584.22;;;23.50;100.00
36788;BME280;22738;45.560;9.434;2022-10-16T11:10:21;100577.16;;;23.74;100.00
36788;BME280;22738;45.560;9.434;2022-10-16T11:17:11;100576.94;;;23.52;100.00
36788;BME280;22738;45.560;9.434;2022-10-16T11:24:01;100569.19;;;23.50;100.00
36788;BME280;22738;45.560;9.434;2022-10-16T11:52:33;100553.66;;;23.55;100.00
36788;BME280;22738;45.560;9.434;2022-10-16T11:59:33;100558.59;;;23.58;100.00
36788;BME280;22738;45.560;9.434;2022-10-16T12:13:38;100555.91;;;23.42;100.00
36788;BME280;22738;45.560;9.434;2022-10-16T12:20:31;100545.53;;;23.49;100.00
36788;BME280;22738;45.560;9.434;2022-10-16T12:27:31;100540.97;;;23.33;100.00
36788;BME280;22738;45.560;9.434;2022-10-16T12:34:36;100527.03;;;23.15;100.00
36788;BME280;22738;45.560;9.434;2022-10-16T12:41:32;100536.66;;;23.24;100.00
36788;BME280;22738;45.560;9.434;2022-10-16T12:48:21;100534.69;;;23.26;100.00
36788;BME280;22738;45.560;9.434;2022-10-16T12:55:05;100534.19;;;23.22;100.00
36788;BME280;22738;45.560;9.434;2022-10-16T13:16:37;100539.47;;;23.22;100.00
36788;BME280;22738;45.560;9.434;2022-10-16T13:30:30;100535.38;;;23.28;100.00
36788;BME280;22738;45.560;9.434;2022-10-16T13:37:23;100545.28;;;23.26;100.00
36788;BME280;22738;45.560;9.434;2022-10-16T13:44:07;100536.03;;;23.30;100.00
36788;BME280;22738;45.560;9.434;2022-10-16T13:51:14;100535.41;;;23.36;100.00
36788;BME280;22738;45.560;9.434;2022-10-16T13:58:05;100538.34;;;23.33;100.00
36788;BME280;22738;45.560;9.434;2022-10-16T14:04:46;100539.66;;;23.29;100.00
36788;BME280;22738;45.560;9.434;2022-10-16T14:11:28;100543.88;;;23.06;100.00
36788;BME280;22738;45.560;9.434;2022-10-16T14:18:21;100550.19;;;23.13;100.00
36788;BME280;22738;45.560;9.434;2022-10-16T14:32:02;100546.19;;;23.01;100.00
36788;BME280;22738;45.560;9.434;2022-10-16T14:39:13;100551.09;;;22.88;100.00
36788;BME280;22738;45.560;9.434;2022-10-16T14:45:58;100550.09;;;22.81;100.00
36788;BME280;22738;45.560;9.434;2022-10-16T14:52:39;100557.00;;;22.74;100.00
36788;BME280;22738;45.560;9.434;2022-10-16T14:59:30;100572.88;;;22.56;100.00
36788;BME280;22738;45.560;9.434;2022-10-16T15:06:15;100571.03;;;22.48;100.00
36788;BME280;22738;45.560;9.434;2022-10-16T15:12:58;100566.50;;;22.41;100.00
36788;BME280;22738;45.560;9.434;2022-10-16T15:19:39;100575.06;;;22.35;100.00
36788;BME280;22738;45.560;9.434;2022-10-16T15:26:20;100568.94;;;22.34;100.00
36788;BME280;22738;45.560;9.434;2022-10-16T15:33:02;100570.44;;;22.37;100.00
36788;BME280;22738;45.560;9.434;2022-10-16T15:39:44;100578.75;;;22.24;100.00
36788;BME280;22738;45.560;9.434;2022-10-16T15:46:25;100580.31;;;22.09;100.00
36788;BME280;22738;45.560;9.434;2022-10-16T15:53:07;100578.53;;;21.92;100.00
36788;BME280;22738;45.560;9.434;2022-10-16T15:59:50;100579.72;;;21.80;100.00
36788;BME280;22738;45.560;9.434;2022-10-16T16:06:31;100582.88;;;21.66;100.00
36788;BME280;22738;45.560;9.434;2022-10-16T16:13:12;100588.25;;;21.47;100.00
36788;BME280;22738;45.560;9.434;2022-10-16T16:19:53;100584.59;;;21.12;100.00
36788;BME280;22738;45.560;9.434;2022-10-16T16:26:35;100585.25;;;20.87;100.00
36788;BME280;22738;45.560;9.434;2022-10-16T16:33:19;100592.25;;;20.69;100.00
36788;BME280;22738;45.560;9.434;2022-10-16T16:40:01;100590.91;;;20.46;100.00
36788;BME280;22738;45.560;9.434;2022-10-16T16:46:44;100608.41;;;20.28;100.00
36788;BME280;22738;45.560;9.434;2022-10-16T16:53:25;100612.84;;;19.99;100.00
36788;BME280;22738;45.560;9.434;2022-10-16T17:00:06;100620.88;;;19.78;100.00
36788;BME280;22738;45.560;9.434;2022-10-16T17:06:48;100629.13;;;19.54;100.00
36788;BME280;22738;45.560;9.434;2022-10-16T17:13:31;100631.88;;;19.43;100.00
36788;BME280;22738;45.560;9.434;2022-10-16T17:20:15;100653.13;;;19.31;100.00
36788;BME280;22738;45.560;9.434;2022-10-16T17:26:56;100660.78;;;19.13;100.00
36788;BME280;22738;45.560;9.434;2022-10-16T17:33:38;100672.38;;;19.01;100.00
36788;BME280;22738;45.560;9.434;2022-10-16T17:40:19;100674.25;;;18.89;100.00
36788;BME280;22738;45.560;9.434;2022-10-16T17:47:00;100688.53;;;18.76;100.00
36788;BME280;22738;45.560;9.434;2022-10-16T17:53:42;100700.75;;;18.66;100.00
36788;BME280;22738;45.560;9.434;2022-10-16T18:00:24;100709.41;;;18.57;100.00
36788;BME280;22738;45.560;9.434;2022-10-16T18:07:05;100719.03;;;18.46;100.00
36788;BME280;22738;45.560;9.434;2022-10-16T18:13:47;100732.28;;;18.34;100.00
36788;BME280;22738;45.560;9.434;2022-10-16T18:20:28;100725.91;;;18.16;100.00
36788;BME280;22738;45.560;9.434;2022-10-16T18:27:09;100737.97;;;18.07;100.00
36788;BME280;22738;45.560;9.434;2022-10-16T18:33:50;100734.16;;;18.00;100.00
36788;BME280;22738;45.560;9.434;2022-10-16T18:40:34;100735.47;;;17.95;100.00
36788;BME280;22738;45.560;9.434;2022-10-16T18:47:15;100745.25;;;17.93;100.00
36788;BME280;22738;45.560;9.434;2022-10-16T18:53:59;100750.06;;;17.88;100.00
36788;BME280;22738;45.560;9.434;2022-10-16T19:00:40;100759.25;;;17.82;100.00
36788;BME280;22738;45.560;9.434;2022-10-16T19:07:22;100759.38;;;17.69;100.00
36788;BME280;22738;45.560;9.434;2022-10-16T19:14:03;100767.97;;;17.60;100.00
36788;BME280;22738;45.560;9.434;2022-10-16T19:20:45;100775.44;;;17.54;100.00
36788;BME280;22738;45.560;9.434;2022-10-16T19:27:26;100781.66;;;17.53;100.00
36788;BME280;22738;45.560;9.434;2022-10-16T19:34:09;100787.13;;;17.61;100.00
36788;BME280;22738;45.560;9.434;2022-10-16T19:40:50;100793.22;;;17.72;100.00
36788;BME280;22738;45.560;9.434;2022-10-16T19:47:31;100801.44;;;17.68;100.00
36788;BME280;22738;45.560;9.434;2022-10-16T19:54:13;100807.88;;;17.64;100.00
36788;BME280;22738;45.560;9.434;2022-10-16T20:00:54;100820.06;;;17.65;100.00
36788;BME280;22738;45.560;9.434;2022-10-16T20:07:34;100829.56;;;17.55;100.00
36788;BME280;22738;45.560;9.434;2022-10-16T20:14:16;100837.13;;;17.47;100.00
36788;BME280;22738;45.560;9.434;2022-10-16T20:20:57;100850.00;;;17.39;100.00
36788;BME280;22738;45.560;9.434;2022-10-16T20:27:38;100869.97;;;17.29;100.00
36788;BME280;22738;45.560;9.434;2022-10-16T20:34:19;100875.22;;;17.29;100.00
36788;BME280;22738;45.560;9.434;2022-10-16T20:41:03;100892.63;;;17.30;100.00
36788;BME280;22738;45.560;9.434;2022-10-16T20:47:44;100882.16;;;17.30;100.00
36788;BME280;22738;45.560;9.434;2022-10-16T20:54:25;100900.34;;;17.20;100.00
36788;BME280;22738;45.560;9.434;2022-10-16T21:01:08;100897.69;;;17.09;100.00
36788;BME280;22738;45.560;9.434;2022-10-16T21:07:49;100900.59;;;16.93;100.00
36788;BME280;22738;45.560;9.434;2022-10-16T21:14:30;100900.75;;;16.79;100.00
36788;BME280;22738;45.560;9.434;2022-10-16T21:21:23;100910.97;;;16.71;100.00
36788;BME280;22738;45.560;9.434;2022-10-16T21:28:05;100920.25;;;16.75;100.00
36788;BME280;22738;45.560;9.434;2022-10-16T21:34:46;100930.22;;;16.70;100.00
36788;BME280;22738;45.560;9.434;2022-10-16T21:41:28;100934.78;;;16.79;100.00
36788;BME280;22738;45.560;9.434;2022-10-16T21:48:09;100930.06;;;16.84;100.00
36788;BME280;22738;45.560;9.434;2022-10-16T21:54:51;100933.34;;;16.75;100.00
36788;BME280;22738;45.560;9.434;2022-10-16T22:01:33;100937.13;;;16.71;100.00
36788;BME280;22738;45.560;9.434;2022-10-16T22:08:14;100932.63;;;16.73;100.00
36788;BME280;22738;45.560;9.434;2022-10-16T22:14:55;100933.34;;;16.75;100.00
36788;BME280;22738;45.560;9.434;2022-10-16T22:21:38;100940.47;;;16.73;100.00
36788;BME280;22738;45.560;9.434;2022-10-16T22:28:20;100943.81;;;16.75;100.00
36788;BME280;22738;45.560;9.434;2022-10-16T22:35:01;100950.31;;;16.70;100.00
36788;BME280;22738;45.560;9.434;2022-10-16T22:41:42;100945.13;;;16.57;100.00
36788;BME280;22738;45.560;9.434;2022-10-16T22:48:23;100941.78;;;16.55;100.00
36788;BME280;22738;45.560;9.434;2022-10-16T22:55:04;100943.78;;;16.52;100.00
36788;BME280;22738;45.560;9.434;2022-10-16T23:01:45;100945.56;;;16.51;100.00
36788;BME280;22738;45.560;9.434;2022-10-16T23:08:26;100947.00;;;16.42;100.00
36788;BME280;22738;45.560;9.434;2022-10-16T23:15:07;100947.84;;;16.43;100.00
36788;BME280;22738;45.560;9.434;2022-10-16T23:21:48;100946.06;;;16.43;100.00
36788;BME280;22738;45.560;9.434;2022-10-16T23:28:30;100947.41;;;16.49;100.00
36788;BME280;22738;45.560;9.434;2022-10-16T23:35:11;100954.78;;;16.44;100.00
36788;BME280;22738;45.560;9.434;2022-10-16T23:41:52;100963.06;;;16.51;100.00
36788;BME280;22738;45.560;9.434;2022-10-16T23:48:33;100968.06;;;16.41;100.00
36788;BME280;22738;45.560;9.434;2022-10-16T23:55:15;100970.69;;;16.41;100.00
